createdAt,value
2019-06-20T16:10:46.253Z,369.50
2019-06-20T16:13:14.801Z,409.40
2019-06-20T16:15:43.364Z,448.60
2019-06-20T16:18:11.977Z,456.40
2019-06-20T16:20:40.516Z,433.47
2019-06-20T16:23:09.153Z,316.33
2019-06-20T16:25:47.435Z,408.23
2019-06-20T16:28:15.997Z,274.77
2019-06-20T16:30:44.556Z,213.90
2019-06-20T16:33:24.665Z,382.33
2019-06-20T16:35:44.641Z,478.53
2019-06-20T16:38:13.213Z,479.20
2019-06-20T16:40:46.743Z,464.40
2019-06-20T16:48:12.619Z,549.00
2019-06-20T16:55:36.810Z,485.30
2019-06-20T16:58:05.974Z,467.05
2019-06-20T17:00:34.772Z,450.00
2019-06-20T17:06:44.715Z,494.23
2019-06-20T17:09:13.318Z,447.20
2019-06-20T17:11:41.858Z,451.80
2019-06-20T17:14:10.318Z,498.90
2019-06-20T17:16:38.835Z,425.75
2019-06-20T17:19:07.402Z,443.80
2019-06-20T17:21:35.991Z,471.63
2019-06-20T17:24:04.930Z,460.50
2019-06-20T17:26:33.613Z,447.20
2019-06-20T17:29:02.176Z,440.80
2019-06-20T17:31:30.643Z,414.95
2019-06-20T17:33:59.268Z,418.30
2019-06-20T17:36:27.745Z,409.85
2019-06-20T17:38:56.278Z,507.40
2019-06-20T17:41:24.792Z,432.60
2019-06-20T17:43:53.340Z,413.23
2019-06-20T17:46:21.810Z,398.10
2019-06-20T17:48:50.467Z,394.00
2019-06-20T17:51:19.048Z,376.30
2019-06-20T17:53:49.625Z,371.45
2019-06-20T17:56:18.126Z,341.90
2019-06-20T17:58:46.615Z,358.70
2019-06-20T18:01:15.204Z,375.10
2019-06-20T18:03:43.782Z,370.95
2019-06-20T18:06:12.410Z,358.23
2019-06-20T18:08:40.980Z,358.73
2019-06-20T18:11:09.493Z,375.20
2019-06-20T18:13:39.511Z,530.80
2019-06-20T18:16:23.752Z,306.93
2019-06-20T18:18:38.475Z,389.97
2019-06-20T18:21:07.058Z,430.73
2019-06-20T18:23:35.530Z,370.97
2019-06-20T18:26:04.156Z,410.40
2019-06-20T18:28:32.654Z,404.60
2019-06-20T18:31:01.327Z,336.67
2019-06-20T18:33:29.875Z,342.70
2019-06-20T18:35:58.341Z,342.20
2019-06-20T18:38:26.911Z,330.33
2019-06-20T18:40:55.455Z,338.23
2019-06-20T18:43:24.125Z,342.87
2019-06-20T18:45:52.662Z,328.10
2019-06-20T18:48:21.224Z,320.63
2019-06-20T18:50:49.798Z,430.00
2019-06-20T18:53:18.406Z,339.03
2019-06-20T18:55:49.417Z,323.63
2019-06-20T18:58:21.390Z,343.50
2019-06-20T19:00:50.353Z,286.43
2019-06-20T19:03:21.298Z,298.03
2019-06-20T19:05:49.261Z,286.77
2019-06-20T19:08:19.329Z,271.33
2019-06-20T19:10:48.766Z,276.20
2019-06-20T19:13:17.368Z,297.27
2019-06-20T19:15:46.129Z,278.70
2019-06-20T19:18:14.767Z,314.80
2019-06-20T19:20:43.423Z,284.13
2019-06-20T19:23:12.360Z,298.05
2019-06-20T19:25:41.116Z,283.77
2019-06-20T19:28:09.671Z,257.30
2019-06-20T19:30:44.090Z,280.63
2019-06-20T19:33:13.206Z,256.63
2019-06-20T19:35:41.858Z,253.27
2019-06-20T19:38:10.507Z,262.23
2019-06-20T19:40:49.773Z,268.40
2019-06-20T19:43:18.369Z,254.30
2019-06-20T19:45:47.019Z,220.37
2019-06-20T19:48:15.845Z,224.05
2019-06-20T19:50:44.898Z,516.95
2019-06-20T19:53:13.646Z,152.30
2019-06-20T19:55:42.848Z,92.53
2019-06-20T19:58:11.615Z,205.45
2019-06-20T20:00:40.156Z,258.20
2019-06-20T20:03:08.827Z,240.40
2019-06-20T20:05:37.416Z,233.65
2019-06-20T20:08:06.417Z,281.87
2019-06-20T20:10:50.681Z,230.03
2019-06-20T20:13:19.445Z,216.90
2019-06-20T20:15:48.634Z,204.87
2019-06-20T20:18:20.444Z,106.60
2019-06-20T20:20:49.226Z,90.20
2019-06-20T20:23:17.893Z,58.83
2019-06-20T20:25:46.958Z,78.07
2019-06-20T20:28:15.484Z,51.47
2019-06-20T20:30:44.146Z,53.40
2019-06-20T20:33:12.772Z,24.60
2019-06-20T20:35:41.409Z,46.00
2019-06-20T20:38:10.099Z,44.05
2019-06-20T20:40:39.369Z,44.15
2019-06-20T20:43:08.316Z,45.77
2019-06-20T20:45:36.996Z,42.60
2019-06-20T20:48:06.227Z,44.55
2019-06-20T20:50:34.976Z,41.30
2019-06-20T20:53:04.898Z,42.70
2019-06-20T20:55:37.583Z,40.40
2019-06-20T20:58:06.216Z,32.80
2019-06-20T21:03:08.128Z,26.63
2019-06-20T21:05:50.694Z,24.77
2019-06-20T21:08:08.261Z,22.73
2019-06-20T21:10:39.754Z,20.20
2019-06-20T21:13:08.623Z,19.45
2019-06-20T21:15:37.341Z,14.60
2019-06-20T21:18:07.398Z,6.67
2019-06-20T21:20:36.285Z,0.40
2019-06-20T21:23:05.025Z,0.37
2019-06-20T21:25:33.642Z,0.30
2019-06-20T21:28:03.012Z,0.20
2019-06-20T21:30:31.697Z,0.20
2019-06-20T21:35:28.348Z,0.30
2019-06-20T21:37:56.999Z,0.90
2019-06-20T21:45:22.639Z,0.40
2019-06-20T21:57:45.913Z,0.70
2019-06-20T22:02:47.326Z,0.25
2019-06-20T22:17:39.052Z,0.20
2019-06-20T22:22:37.807Z,0.30
2019-06-20T22:27:38.009Z,0.20
2019-06-20T22:32:39.145Z,0.20
2019-06-20T22:42:32.936Z,0.20
2019-06-20T22:52:25.183Z,0.20
2019-06-20T23:02:17.105Z,0.15
2019-06-20T23:17:05.113Z,0.10
2019-06-20T23:26:56.991Z,0.10
2019-06-20T23:39:17.694Z,0.10
2019-06-20T23:46:42.356Z,0.10
